createdAt,value
2023-05-10T00:00:01.065Z,13.45
2023-05-10T00:03:05.992Z,13.37
2023-05-10T00:06:08.765Z,13.29
2023-05-10T00:09:12.003Z,13.19
2023-05-10T00:12:14.624Z,13.14
2023-05-10T00:15:17.208Z,13.07
2023-05-10T00:18:19.752Z,13.13
2023-05-10T00:21:22.952Z,13.06
2023-05-10T00:24:26.191Z,13.05
2023-05-10T00:27:28.834Z,13.02
2023-05-10T00:30:31.685Z,12.91
2023-05-10T00:33:35.351Z,12.82
2023-05-10T00:36:39.363Z,12.79
2023-05-10T00:39:44.896Z,12.82
2023-05-10T00:42:47.616Z,12.79
2023-05-10T00:45:50.898Z,12.81
2023-05-10T00:48:54.034Z,12.76
2023-05-10T00:51:59.649Z,12.64
2023-05-10T00:55:04.411Z,12.56
2023-05-10T00:58:08.213Z,12.54
2023-05-10T01:01:11.869Z,12.51
2023-05-10T01:04:15.992Z,12.51
2023-05-10T01:07:19.372Z,12.53
2023-05-10T01:10:22.077Z,12.53
2023-05-10T01:13:35.856Z,12.53
2023-05-10T01:16:41.671Z,12.58
2023-05-10T01:19:45.792Z,12.68
2023-05-10T01:23:26.701Z,12.71
2023-05-10T01:27:18.322Z,12.71
2023-05-10T01:30:34.571Z,12.70
2023-05-10T01:34:06.448Z,12.67
2023-05-10T01:37:16.775Z,12.66
2023-05-10T01:40:43.282Z,12.60
2023-05-10T01:44:12.431Z,12.58
2023-05-10T01:47:22.619Z,12.48
2023-05-10T01:50:30.576Z,12.44
2023-05-10T01:53:38.523Z,12.62
2023-05-10T01:56:43.380Z,12.72
2023-05-10T01:59:49.190Z,12.79
2023-05-10T02:02:57.664Z,12.83
2023-05-10T02:06:02.871Z,12.84
2023-05-10T02:09:09.098Z,12.79
2023-05-10T02:12:14.335Z,12.68
2023-05-10T02:15:25.931Z,12.69
2023-05-10T02:18:28.757Z,12.56
2023-05-10T02:21:33.819Z,12.57
2023-05-10T02:24:39.453Z,12.68
2023-05-10T02:27:43.879Z,12.79
2023-05-10T02:30:48.721Z,12.89
2023-05-10T02:33:52.266Z,13.01
2023-05-10T02:36:56.350Z,13.03
2023-05-10T02:40:00.684Z,13.04
2023-05-10T02:43:06.754Z,13.08
2023-05-10T02:46:10.526Z,13.07
2023-05-10T02:49:13.403Z,12.96
2023-05-10T02:52:20.462Z,12.89
2023-05-10T02:55:27.886Z,12.67
2023-05-10T02:58:30.497Z,12.63
2023-05-10T03:01:35.175Z,12.50
2023-05-10T03:04:40.249Z,12.47
2023-05-10T03:07:43.027Z,12.45
2023-05-10T03:11:00.429Z,12.38
2023-05-10T03:14:10.460Z,12.43
2023-05-10T03:17:25.816Z,12.25
2023-05-10T03:21:06.257Z,12.15
2023-05-10T03:24:12.959Z,12.09
2023-05-10T03:27:17.746Z,12.05
2023-05-10T03:30:21.099Z,11.98
2023-05-10T03:33:26.513Z,12.08
2023-05-10T03:36:29.731Z,12.13
2023-05-10T03:39:32.461Z,12.19
2023-05-10T03:42:36.940Z,12.23
2023-05-10T03:45:39.553Z,12.23
2023-05-10T03:48:43.683Z,12.28
2023-05-10T03:51:46.385Z,12.32
2023-05-10T03:54:49.249Z,12.30
2023-05-10T03:57:52.000Z,12.33
2023-05-10T04:00:54.771Z,12.29
2023-05-10T04:03:57.479Z,12.28
2023-05-10T04:07:00.261Z,12.28
2023-05-10T04:10:03.004Z,12.39
2023-05-10T04:13:05.622Z,12.46
2023-05-10T04:16:10.423Z,12.39
2023-05-10T04:19:13.052Z,12.23
2023-05-10T04:22:15.668Z,12.10
2023-05-10T04:25:18.193Z,12.13
2023-05-10T04:28:20.754Z,12.10
2023-05-10T04:31:25.200Z,12.05
2023-05-10T04:34:27.834Z,12.03
2023-05-10T04:37:31.944Z,12.01
2023-05-10T04:40:35.259Z,12.09
2023-05-10T04:43:38.607Z,12.11
2023-05-10T04:46:41.212Z,12.22
2023-05-10T04:49:44.473Z,12.28
2023-05-10T04:52:47.053Z,12.28
2023-05-10T04:55:50.015Z,12.33
2023-05-10T04:58:52.633Z,12.33
2023-05-10T05:01:55.261Z,12.38
2023-05-10T05:04:58.944Z,12.38
2023-05-10T05:08:01.822Z,12.34
2023-05-10T05:11:04.737Z,12.38
2023-05-10T05:14:07.276Z,12.40
2023-05-10T05:17:09.813Z,12.55
2023-05-10T05:20:12.843Z,12.80
2023-05-10T05:23:15.607Z,13.07
2023-05-10T05:26:18.135Z,13.20
2023-05-10T05:29:20.783Z,13.18
2023-05-10T05:32:24.622Z,13.19
2023-05-10T05:35:27.649Z,13.14
2023-05-10T05:38:30.293Z,13.07
2023-05-10T05:41:32.854Z,13.24
2023-05-10T05:44:36.945Z,13.32
2023-05-10T05:47:40.929Z,13.21
2023-05-10T05:50:43.740Z,13.21
2023-05-10T05:53:46.657Z,13.03
2023-05-10T05:56:49.204Z,13.02
2023-05-10T05:59:51.869Z,13.05
2023-05-10T06:02:54.598Z,13.12
2023-05-10T06:05:57.365Z,13.22
2023-05-10T06:09:00.410Z,13.27
2023-05-10T06:12:03.533Z,13.48
2023-05-10T06:15:08.668Z,13.48
2023-05-10T06:18:11.324Z,13.59
2023-05-10T06:21:13.888Z,13.82
2023-05-10T06:24:16.607Z,13.87
2023-05-10T06:27:19.137Z,13.97
2023-05-10T06:30:28.209Z,14.06
2023-05-10T06:33:31.148Z,14.19
2023-05-10T06:36:33.758Z,14.35
2023-05-10T06:39:37.846Z,14.33
2023-05-10T06:42:42.689Z,14.60
2023-05-10T06:45:49.229Z,14.87
2023-05-10T06:48:52.926Z,14.89
2023-05-10T06:51:59.379Z,14.98
2023-05-10T06:55:21.883Z,15.11
2023-05-10T06:58:24.423Z,15.36
2023-05-10T07:01:27.034Z,15.41
2023-05-10T07:04:30.138Z,15.14
2023-05-10T07:07:33.031Z,15.11
2023-05-10T07:10:35.659Z,15.26
2023-05-10T07:13:40.156Z,15.60
2023-05-10T07:16:43.294Z,15.51
2023-05-10T07:19:46.914Z,15.93
2023-05-10T07:22:49.432Z,16.10
2023-05-10T07:25:55.661Z,16.25
2023-05-10T07:28:58.163Z,16.48
2023-05-10T07:32:00.815Z,16.59
2023-05-10T07:35:04.413Z,16.41
2023-05-10T07:38:07.044Z,16.62
2023-05-10T07:41:09.619Z,16.48
2023-05-10T07:44:12.247Z,16.59
2023-05-10T07:47:15.660Z,17.02
2023-05-10T07:50:18.542Z,17.37
2023-05-10T07:53:22.512Z,16.99
2023-05-10T07:56:30.711Z,16.82
2023-05-10T07:59:34.313Z,17.20
2023-05-10T08:02:37.271Z,17.33
2023-05-10T08:05:39.891Z,17.66
2023-05-10T08:08:42.734Z,17.80
2023-05-10T08:11:45.494Z,17.79
2023-05-10T08:14:48.042Z,17.82
2023-05-10T08:17:50.530Z,17.61
2023-05-10T08:20:53.068Z,17.86
2023-05-10T08:23:55.890Z,17.96
2023-05-10T08:26:59.027Z,17.98
2023-05-10T08:30:02.816Z,17.99
2023-05-10T08:33:06.810Z,18.33
2023-05-10T08:36:11.257Z,18.64
2023-05-10T08:39:26.805Z,18.35
2023-05-10T08:42:37.291Z,18.06
2023-05-10T08:45:44.327Z,18.43
2023-05-10T08:48:48.266Z,18.44
2023-05-10T08:51:57.666Z,18.80
2023-05-10T08:55:01.253Z,18.99
2023-05-10T08:58:04.984Z,19.08
2023-05-10T09:01:08.609Z,19.22
2023-05-10T09:04:11.602Z,19.52
2023-05-10T09:07:14.272Z,19.05
2023-05-10T09:10:17.270Z,19.57
2023-05-10T09:13:20.776Z,19.72
2023-05-10T09:16:24.416Z,19.98
2023-05-10T09:19:28.791Z,20.30
2023-05-10T09:22:32.818Z,19.51
2023-05-10T09:25:39.755Z,19.49
2023-05-10T09:28:57.011Z,19.60
2023-05-10T09:31:59.850Z,19.50
2023-05-10T09:35:08.096Z,19.54
2023-05-10T09:38:11.479Z,19.95
2023-05-10T09:41:24.172Z,19.65
2023-05-10T09:44:29.832Z,20.03
2023-05-10T09:47:37.097Z,20.41
2023-05-10T09:50:40.377Z,20.35
2023-05-10T09:53:42.865Z,21.05
2023-05-10T09:56:45.468Z,21.10
2023-05-10T09:59:48.579Z,20.66
2023-05-10T10:03:01.110Z,20.48
2023-05-10T10:06:15.977Z,20.60
2023-05-10T10:09:29.920Z,21.02
2023-05-10T10:12:32.733Z,20.76
2023-05-10T10:15:36.584Z,21.14
2023-05-10T10:18:40.909Z,21.54
2023-05-10T10:21:43.410Z,21.46
2023-05-10T10:24:46.690Z,21.28
2023-05-10T10:27:55.217Z,21.64
2023-05-10T10:31:03.461Z,22.52
2023-05-10T10:34:14.093Z,23.84
2023-05-10T10:37:18.116Z,23.73
2023-05-10T10:40:34.655Z,24.66
2023-05-10T10:43:37.755Z,23.90
2023-05-10T10:47:00.408Z,25.51
2023-05-10T10:50:06.756Z,25.03
2023-05-10T10:53:15.111Z,26.08
2023-05-10T10:56:24.653Z,29.26
2023-05-10T10:59:30.117Z,28.58
2023-05-10T11:02:47.004Z,24.25
2023-05-10T11:05:52.337Z,22.62
2023-05-10T11:08:55.746Z,23.39
2023-05-10T11:11:59.396Z,24.79
2023-05-10T11:15:02.526Z,22.06
2023-05-10T11:18:30.991Z,21.21
2023-05-10T11:21:35.451Z,20.95
2023-05-10T11:24:38.296Z,20.76
2023-05-10T11:27:41.535Z,20.31
2023-05-10T11:30:45.481Z,20.35
2023-05-10T11:33:49.184Z,21.15
2023-05-10T11:36:54.891Z,22.37
2023-05-10T11:39:57.551Z,27.49
2023-05-10T11:43:00.483Z,26.73
2023-05-10T11:46:03.822Z,24.05
2023-05-10T11:49:08.596Z,22.41
2023-05-10T11:52:12.477Z,21.66
2023-05-10T11:55:15.047Z,21.08
2023-05-10T11:58:19.827Z,22.99
2023-05-10T12:01:24.170Z,26.12
2023-05-10T12:04:27.745Z,23.40
2023-05-10T12:07:30.573Z,23.03
2023-05-10T12:10:35.894Z,22.47
2023-05-10T12:13:42.274Z,22.47
2023-05-10T12:16:44.847Z,22.14
2023-05-10T12:19:49.680Z,22.02
2023-05-10T12:22:59.662Z,22.17
2023-05-10T12:26:03.826Z,23.76
2023-05-10T12:29:21.384Z,24.90
2023-05-10T12:32:41.914Z,26.01
2023-05-10T12:35:45.744Z,23.37
2023-05-10T12:38:49.126Z,22.47
2023-05-10T12:41:52.312Z,21.70
2023-05-10T12:44:58.553Z,21.96
2023-05-10T12:48:01.151Z,22.37
2023-05-10T12:51:05.987Z,22.56
2023-05-10T12:54:09.614Z,22.48
2023-05-10T12:57:12.097Z,22.41
2023-05-10T13:00:16.138Z,22.94
2023-05-10T13:03:19.909Z,26.39
2023-05-10T13:06:22.457Z,25.32
2023-05-10T13:09:30.709Z,25.72
2023-05-10T13:12:33.385Z,25.06
2023-05-10T13:15:36.193Z,29.77
2023-05-10T13:18:38.717Z,31.49
2023-05-10T13:21:45.282Z,28.04
2023-05-10T13:24:48.284Z,26.65
2023-05-10T13:27:53.311Z,25.75
2023-05-10T13:30:55.955Z,27.07
2023-05-10T13:33:58.445Z,24.83
2023-05-10T13:37:00.932Z,24.43
2023-05-10T13:40:05.493Z,24.29
2023-05-10T13:43:08.104Z,25.85
2023-05-10T13:46:11.810Z,25.20
2023-05-10T13:49:14.386Z,24.98
2023-05-10T13:52:17.056Z,24.68
2023-05-10T13:55:19.837Z,24.20
2023-05-10T13:58:22.812Z,24.44
2023-05-10T14:01:25.883Z,23.91
2023-05-10T14:04:28.411Z,22.52
2023-05-10T14:07:31.782Z,21.83
2023-05-10T14:10:34.397Z,22.02
2023-05-10T14:13:38.227Z,24.48
2023-05-10T14:16:45.438Z,24.17
2023-05-10T14:19:48.103Z,23.48
2023-05-10T14:22:50.886Z,22.60
2023-05-10T14:25:53.908Z,21.64
2023-05-10T14:28:56.585Z,21.11
2023-05-10T14:31:59.183Z,20.83
2023-05-10T14:35:01.690Z,21.01
2023-05-10T14:38:04.746Z,21.46
2023-05-10T14:41:07.911Z,21.70
2023-05-10T14:44:11.578Z,21.83
2023-05-10T14:47:14.286Z,21.65
2023-05-10T14:50:32.362Z,21.58
2023-05-10T14:53:38.134Z,21.60
2023-05-10T14:56:42.439Z,21.40
2023-05-10T14:59:44.942Z,21.07
2023-05-10T15:02:49.154Z,20.60
2023-05-10T15:05:53.054Z,20.29
2023-05-10T15:08:55.572Z,20.07
2023-05-10T15:11:58.043Z,19.96
2023-05-10T15:15:00.636Z,19.95
2023-05-10T15:18:05.529Z,19.91
2023-05-10T15:21:08.042Z,19.93
2023-05-10T15:24:10.698Z,20.12
2023-05-10T15:27:13.379Z,20.14
2023-05-10T15:30:16.108Z,20.48
2023-05-10T15:33:18.850Z,20.53
2023-05-10T15:36:21.892Z,20.42
2023-05-10T15:39:25.008Z,20.39
2023-05-10T15:42:28.015Z,20.31
2023-05-10T15:45:30.700Z,20.16
2023-05-10T15:48:33.385Z,19.90
2023-05-10T15:51:36.726Z,19.70
2023-05-10T15:54:39.911Z,19.54
2023-05-10T15:57:43.888Z,19.55
2023-05-10T16:00:47.196Z,19.51
2023-05-10T16:03:50.019Z,19.52
2023-05-10T16:06:52.831Z,19.51
2023-05-10T16:09:55.612Z,19.48
2023-05-10T16:13:01.465Z,19.48
2023-05-10T16:16:05.248Z,19.44
2023-05-10T16:19:10.252Z,19.53
2023-05-10T16:22:13.541Z,19.54
2023-05-10T16:25:16.726Z,19.43
2023-05-10T16:28:21.549Z,19.38
2023-05-10T16:31:24.643Z,19.35
2023-05-10T16:34:27.662Z,19.33
2023-05-10T16:37:30.449Z,19.30
2023-05-10T16:40:35.761Z,19.27
2023-05-10T16:43:38.395Z,19.18
2023-05-10T16:46:41.059Z,19.27
2023-05-10T16:49:43.646Z,19.12
2023-05-10T16:52:46.486Z,19.20
2023-05-10T16:55:49.168Z,19.14
2023-05-10T16:58:54.072Z,19.05
2023-05-10T17:01:56.739Z,18.97
2023-05-10T17:04:59.691Z,18.87
2023-05-10T17:08:02.358Z,18.82
2023-05-10T17:11:05.286Z,18.77
2023-05-10T17:14:08.688Z,18.68
2023-05-10T17:17:11.541Z,18.62
2023-05-10T17:20:14.128Z,18.52
2023-05-10T17:23:16.962Z,18.50
2023-05-10T17:26:19.541Z,18.39
2023-05-10T17:29:22.242Z,18.20
2023-05-10T17:32:27.589Z,18.13
2023-05-10T17:35:31.513Z,18.03
2023-05-10T17:38:34.165Z,17.97
2023-05-10T17:41:36.898Z,17.88
2023-05-10T17:44:39.858Z,17.82
2023-05-10T17:47:43.163Z,17.66
2023-05-10T17:50:45.774Z,17.62
2023-05-10T17:53:48.766Z,17.56
2023-05-10T17:56:52.853Z,17.49
2023-05-10T17:59:56.006Z,17.44
2023-05-10T18:02:59.055Z,17.36
2023-05-10T18:06:05.563Z,17.31
2023-05-10T18:09:08.562Z,17.29
2023-05-10T18:12:13.573Z,17.21
2023-05-10T18:15:17.370Z,17.07
2023-05-10T18:18:20.668Z,17.07
2023-05-10T18:21:23.864Z,17.04
2023-05-10T18:24:38.306Z,17.02
2023-05-10T18:27:45.164Z,17.01
2023-05-10T18:30:48.712Z,17.01
2023-05-10T18:33:52.421Z,16.91
2023-05-10T18:36:56.588Z,16.78
2023-05-10T18:40:00.880Z,16.69
2023-05-10T18:43:05.544Z,16.71
2023-05-10T18:46:11.238Z,16.65
2023-05-10T18:49:19.796Z,16.59
2023-05-10T18:52:23.500Z,16.56
2023-05-10T18:55:28.419Z,16.60
2023-05-10T18:58:32.700Z,16.61
2023-05-10T19:01:38.252Z,16.64
2023-05-10T19:04:43.447Z,16.61
2023-05-10T19:07:47.796Z,16.67
2023-05-10T19:10:52.825Z,16.69
2023-05-10T19:14:00.190Z,16.67
2023-05-10T19:17:07.693Z,16.60
2023-05-10T19:20:12.565Z,16.56
2023-05-10T19:23:16.637Z,16.56
2023-05-10T19:26:22.940Z,16.54
2023-05-10T19:29:27.621Z,16.56
2023-05-10T19:32:31.594Z,16.62
2023-05-10T19:35:39.732Z,16.63
2023-05-10T19:38:45.652Z,16.62
2023-05-10T19:41:50.304Z,16.60
2023-05-10T19:44:53.994Z,16.61
2023-05-10T19:47:59.528Z,16.60
2023-05-10T19:51:07.001Z,16.56
2023-05-10T19:54:12.011Z,16.50
2023-05-10T19:57:15.632Z,16.47
2023-05-10T20:00:19.607Z,16.44
2023-05-10T20:03:23.574Z,16.45
2023-05-10T20:06:27.545Z,16.45
2023-05-10T20:09:31.457Z,16.47
2023-05-10T20:12:34.866Z,16.46
2023-05-10T20:15:38.648Z,16.45
2023-05-10T20:18:42.508Z,16.45
2023-05-10T20:21:45.541Z,16.41
2023-05-10T20:24:48.706Z,16.40
2023-05-10T20:27:53.214Z,16.38
2023-05-10T20:30:57.045Z,16.44
2023-05-10T20:34:02.348Z,16.41
2023-05-10T20:37:06.358Z,16.35
2023-05-10T20:40:10.300Z,16.29
2023-05-10T20:43:13.977Z,16.31
2023-05-10T20:46:17.592Z,16.34
2023-05-10T20:49:21.034Z,16.30
2023-05-10T20:52:24.674Z,16.34
2023-05-10T20:55:28.378Z,16.29
2023-05-10T20:58:31.183Z,16.35
2023-05-10T21:01:33.898Z,16.36
2023-05-10T21:04:37.023Z,16.36
2023-05-10T21:07:39.967Z,16.37
2023-05-10T21:10:42.711Z,16.40
2023-05-10T21:13:45.276Z,16.36
2023-05-10T21:16:47.991Z,16.35
2023-05-10T21:19:51.864Z,16.31
2023-05-10T21:22:54.476Z,16.31
2023-05-10T21:26:00.978Z,16.31
2023-05-10T21:29:04.947Z,16.29
2023-05-10T21:32:07.938Z,16.29
2023-05-10T21:35:10.726Z,16.25
2023-05-10T21:38:16.183Z,16.22
2023-05-10T21:41:18.887Z,16.20
2023-05-10T21:44:21.450Z,16.25
2023-05-10T21:47:24.018Z,16.20
2023-05-10T21:50:27.569Z,16.18
2023-05-10T21:53:30.358Z,16.15
2023-05-10T21:56:34.534Z,16.09
2023-05-10T21:59:37.246Z,16.14
2023-05-10T22:02:40.739Z,16.11
2023-05-10T22:05:44.049Z,16.02
2023-05-10T22:08:46.602Z,16.06
2023-05-10T22:11:49.845Z,16.10
2023-05-10T22:15:09.466Z,16.11
2023-05-10T22:18:13.447Z,16.09
2023-05-10T22:21:16.056Z,16.07
2023-05-10T22:24:21.230Z,16.04
2023-05-10T22:27:23.901Z,15.96
2023-05-10T22:30:26.725Z,15.85
2023-05-10T22:33:29.631Z,15.78
2023-05-10T22:36:32.480Z,15.70
2023-05-10T22:39:38.118Z,15.59
2023-05-10T22:42:40.779Z,15.48
2023-05-10T22:45:43.544Z,15.37
2023-05-10T22:48:46.280Z,15.25
2023-05-10T22:51:49.045Z,15.20
2023-05-10T22:54:51.721Z,15.16
2023-05-10T22:57:54.508Z,15.08
2023-05-10T23:00:57.119Z,15.03
2023-05-10T23:03:59.774Z,14.98
2023-05-10T23:07:03.392Z,14.97
2023-05-10T23:10:06.584Z,14.97
2023-05-10T23:13:09.373Z,14.88
2023-05-10T23:16:12.186Z,14.84
2023-05-10T23:19:17.104Z,14.82
2023-05-10T23:22:19.835Z,14.79
2023-05-10T23:25:22.820Z,14.81
2023-05-10T23:28:25.351Z,14.76
2023-05-10T23:31:28.101Z,14.84
2023-05-10T23:34:31.447Z,14.86
2023-05-10T23:37:33.997Z,14.80
2023-05-10T23:40:36.696Z,14.87
2023-05-10T23:43:39.410Z,14.81
2023-05-10T23:46:43.761Z,14.92
2023-05-10T23:49:46.349Z,14.98
2023-05-10T23:52:48.951Z,15.05
2023-05-10T23:55:51.625Z,15.04
2023-05-10T23:58:54.069Z,15.05
